createdAt,value
2022-09-15T00:02:22.481Z,9.20
2022-09-15T00:04:49.452Z,8.70
2022-09-15T00:07:17.209Z,9.20
2022-09-15T00:09:43.946Z,8.80
2022-09-15T00:12:10.722Z,9.40
2022-09-15T00:14:37.592Z,9.00
2022-09-15T00:17:04.437Z,8.90
2022-09-15T00:19:31.304Z,9.10
2022-09-15T00:21:58.158Z,9.30
2022-09-15T00:24:24.912Z,9.00
2022-09-15T00:26:51.778Z,8.30
2022-09-15T00:29:18.969Z,8.50
2022-09-15T00:31:45.741Z,9.10
2022-09-15T00:34:14.155Z,8.40
2022-09-15T00:36:41.031Z,8.70
2022-09-15T00:39:07.880Z,8.80
2022-09-15T00:41:34.669Z,9.40
2022-09-15T00:44:05.028Z,9.20
2022-09-15T00:46:34.724Z,8.80
2022-09-15T00:49:17.745Z,8.60
2022-09-15T00:51:49.300Z,8.80
2022-09-15T00:54:20.299Z,8.80
2022-09-15T00:56:49.562Z,8.30
2022-09-15T00:59:20.767Z,9.30
2022-09-15T01:01:55.246Z,8.90
2022-09-15T01:04:22.378Z,9.60
2022-09-15T01:06:55.554Z,8.70
2022-09-15T01:09:29.678Z,8.60
2022-09-15T01:11:56.951Z,9.90
2022-09-15T01:14:23.783Z,9.50
2022-09-15T01:16:59.179Z,9.60
2022-09-15T01:19:42.808Z,9.10
2022-09-15T01:22:32.938Z,10.00
2022-09-15T01:25:22.933Z,8.40
2022-09-15T01:28:22.893Z,8.70
2022-09-15T01:31:00.438Z,8.30
2022-09-15T01:33:34.628Z,9.00
2022-09-15T01:36:05.566Z,9.10
2022-09-15T01:38:55.944Z,9.50
2022-09-15T01:41:30.138Z,9.10
2022-09-15T01:44:15.212Z,9.90
2022-09-15T01:46:47.283Z,12.60
2022-09-15T01:49:19.484Z,10.90
2022-09-15T01:51:48.602Z,13.40
2022-09-15T01:54:19.472Z,12.50
2022-09-15T01:56:46.533Z,14.10
2022-09-15T01:59:13.424Z,14.50
2022-09-15T02:01:49.822Z,11.30
2022-09-15T02:04:27.967Z,13.40
2022-09-15T02:07:02.604Z,12.50
2022-09-15T02:09:36.999Z,13.00
2022-09-15T02:12:20.748Z,11.50
2022-09-15T02:15:08.170Z,12.50
2022-09-15T02:17:39.140Z,12.40
2022-09-15T02:20:16.160Z,14.40
2022-09-15T02:22:48.852Z,16.50
2022-09-15T02:25:22.017Z,16.50
2022-09-15T02:27:55.165Z,13.00
2022-09-15T02:30:22.612Z,13.20
2022-09-15T02:32:56.331Z,11.20
2022-09-15T02:35:26.092Z,11.80
2022-09-15T02:37:54.613Z,10.90
2022-09-15T02:40:22.593Z,11.30
2022-09-15T02:42:56.075Z,11.40
2022-09-15T02:45:24.901Z,9.70
2022-09-15T02:47:51.743Z,9.90
2022-09-15T02:50:20.531Z,10.80
2022-09-15T02:52:47.264Z,10.50
2022-09-15T02:55:14.084Z,8.70
2022-09-15T02:57:40.886Z,9.20
2022-09-15T03:00:13.968Z,10.50
2022-09-15T03:02:42.263Z,10.10
2022-09-15T03:05:10.538Z,10.50
2022-09-15T03:07:38.608Z,10.80
2022-09-15T03:10:07.434Z,11.20
2022-09-15T03:12:39.985Z,8.50
2022-09-15T03:15:08.907Z,9.80
2022-09-15T03:17:37.339Z,10.40
2022-09-15T03:20:06.132Z,10.00
2022-09-15T03:22:32.939Z,10.60
2022-09-15T03:24:59.693Z,10.20
2022-09-15T03:27:27.051Z,10.70
2022-09-15T03:29:54.112Z,10.70
2022-09-15T03:32:20.881Z,8.70
2022-09-15T03:34:47.661Z,9.30
2022-09-15T03:37:14.560Z,8.60
2022-09-15T03:39:41.412Z,10.10
2022-09-15T03:42:08.214Z,9.60
2022-09-15T03:44:35.929Z,10.40
2022-09-15T03:47:04.080Z,9.40
2022-09-15T03:49:30.892Z,9.50
2022-09-15T03:51:58.959Z,8.20
2022-09-15T03:54:26.707Z,8.80
2022-09-15T03:56:53.677Z,9.50
2022-09-15T03:59:20.886Z,11.40
2022-09-15T04:01:49.430Z,10.30
2022-09-15T04:04:17.586Z,11.10
2022-09-15T04:06:44.988Z,6.90
2022-09-15T04:09:12.057Z,9.50
2022-09-15T04:11:40.908Z,8.80
2022-09-15T04:14:07.741Z,7.80
2022-09-15T04:16:34.625Z,8.50
2022-09-15T04:19:01.641Z,6.50
2022-09-15T04:21:28.473Z,6.50
2022-09-15T04:23:55.464Z,6.80
2022-09-15T04:26:27.726Z,6.90
2022-09-15T04:28:54.604Z,8.60
2022-09-15T04:31:21.499Z,8.40
2022-09-15T04:33:48.397Z,6.30
2022-09-15T04:36:19.417Z,7.70
2022-09-15T04:38:46.414Z,6.90
2022-09-15T04:41:14.642Z,7.40
2022-09-15T04:43:43.372Z,7.60
2022-09-15T04:46:11.478Z,7.50
2022-09-15T04:48:38.346Z,7.40
2022-09-15T04:51:08.353Z,7.80
2022-09-15T04:53:35.832Z,8.50
2022-09-15T04:56:05.581Z,7.40
2022-09-15T04:58:38.022Z,9.90
2022-09-15T05:01:10.616Z,10.00
2022-09-15T05:03:38.248Z,11.60
2022-09-15T05:06:07.183Z,12.30
2022-09-15T05:08:33.934Z,13.00
2022-09-15T05:11:02.380Z,14.90
2022-09-15T05:13:29.406Z,12.70
2022-09-15T05:15:56.248Z,12.60
2022-09-15T05:18:23.024Z,14.40
2022-09-15T05:20:49.767Z,13.30
2022-09-15T05:23:16.568Z,12.30
2022-09-15T05:25:43.410Z,15.00
2022-09-15T05:28:10.157Z,9.40
2022-09-15T05:30:44.082Z,8.50
2022-09-15T05:33:11.346Z,6.90
2022-09-15T05:35:38.114Z,6.50
2022-09-15T05:38:04.866Z,7.00
2022-09-15T05:40:33.273Z,7.00
2022-09-15T05:43:00.002Z,8.50
2022-09-15T05:45:26.896Z,9.70
2022-09-15T05:47:54.035Z,10.70
2022-09-15T05:50:20.834Z,12.20
2022-09-15T05:52:51.584Z,9.40
2022-09-15T05:55:18.615Z,8.30
2022-09-15T05:57:45.357Z,7.30
2022-09-15T06:00:12.939Z,5.60
2022-09-15T06:02:40.041Z,5.80
2022-09-15T06:05:07.133Z,5.70
2022-09-15T06:07:34.254Z,5.30
2022-09-15T06:10:00.996Z,5.30
2022-09-15T06:12:28.173Z,4.50
2022-09-15T06:14:54.975Z,4.90
2022-09-15T06:17:23.266Z,5.20
2022-09-15T06:19:50.009Z,5.20
2022-09-15T06:22:16.794Z,5.30
2022-09-15T06:24:43.536Z,5.30
2022-09-15T06:27:10.341Z,5.20
2022-09-15T06:29:37.116Z,4.90
2022-09-15T06:32:05.196Z,4.70
2022-09-15T06:34:33.502Z,3.50
2022-09-15T06:37:00.242Z,3.10
2022-09-15T06:39:27.173Z,2.20
2022-09-15T06:42:02.333Z,1.90
2022-09-15T06:44:30.403Z,1.80
2022-09-15T06:46:57.223Z,1.20
2022-09-15T06:49:24.120Z,1.30
2022-09-15T06:51:51.068Z,0.80
2022-09-15T06:54:18.095Z,0.70
2022-09-15T06:56:45.040Z,0.70
2022-09-15T06:59:12.813Z,0.60
2022-09-15T07:01:39.673Z,0.80
2022-09-15T07:04:10.679Z,0.80
2022-09-15T07:06:39.612Z,0.70
2022-09-15T07:09:07.311Z,0.70
2022-09-15T07:11:34.544Z,1.00
2022-09-15T07:14:01.429Z,1.00
2022-09-15T07:16:28.319Z,0.90
2022-09-15T07:18:57.260Z,1.00
2022-09-15T07:21:24.769Z,1.00
2022-09-15T07:23:51.809Z,1.00
2022-09-15T07:26:28.834Z,1.10
2022-09-15T07:28:58.479Z,1.10
2022-09-15T07:31:28.300Z,0.80
2022-09-15T07:33:55.606Z,0.90
2022-09-15T07:36:22.771Z,1.00
2022-09-15T07:38:50.128Z,1.20
2022-09-15T07:41:21.193Z,3.90
2022-09-15T07:43:49.979Z,1.60
2022-09-15T07:46:17.879Z,17.00
2022-09-15T07:48:46.080Z,4.20
2022-09-15T07:51:13.428Z,8.20
2022-09-15T07:53:40.281Z,4.00
2022-09-15T07:56:08.152Z,2.80
2022-09-15T07:58:35.086Z,2.10
2022-09-15T08:01:04.226Z,1.80
2022-09-15T08:03:31.218Z,2.40
2022-09-15T08:05:59.754Z,1.70
2022-09-15T08:08:26.992Z,1.20
2022-09-15T08:10:53.754Z,1.30
2022-09-15T08:13:20.514Z,1.50
2022-09-15T08:15:48.482Z,2.00
2022-09-15T08:18:15.434Z,1.80
2022-09-15T08:20:43.214Z,1.10
2022-09-15T08:23:11.406Z,1.40
2022-09-15T08:25:39.010Z,1.10
2022-09-15T08:28:05.959Z,1.10
2022-09-15T08:30:32.673Z,1.00
2022-09-15T08:32:59.454Z,1.10
2022-09-15T08:35:26.254Z,1.20
2022-09-15T08:37:55.336Z,1.40
2022-09-15T08:40:28.499Z,1.50
2022-09-15T08:43:00.567Z,1.70
2022-09-15T08:45:31.181Z,1.80
2022-09-15T08:48:03.355Z,1.90
2022-09-15T08:50:39.920Z,2.20
2022-09-15T08:53:13.246Z,3.00
2022-09-15T08:55:46.931Z,3.30
2022-09-15T09:00:48.785Z,3.90
2022-09-15T09:03:31.255Z,3.90
2022-09-15T09:06:02.672Z,3.90
2022-09-15T09:08:34.494Z,3.60
2022-09-15T09:11:10.362Z,4.00
2022-09-15T09:13:38.013Z,4.40
2022-09-15T09:16:36.327Z,4.20
2022-09-15T09:19:28.025Z,4.40
2022-09-15T09:22:08.083Z,3.90
2022-09-15T09:24:41.554Z,3.80
2022-09-15T09:27:19.180Z,3.70
2022-09-15T09:29:50.105Z,4.00
2022-09-15T09:32:24.737Z,3.20
2022-09-15T09:35:01.242Z,3.20
2022-09-15T09:37:28.550Z,3.00
2022-09-15T09:39:55.316Z,2.80
2022-09-15T09:42:28.836Z,2.80
2022-09-15T09:44:55.839Z,2.50
2022-09-15T09:47:28.020Z,3.10
2022-09-15T09:49:54.732Z,2.30
2022-09-15T09:52:38.616Z,2.90
2022-09-15T09:55:21.776Z,3.00
2022-09-15T09:57:48.811Z,3.40
2022-09-15T10:00:31.745Z,3.20
2022-09-15T10:02:58.490Z,4.20
2022-09-15T10:05:25.470Z,4.70
2022-09-15T10:07:52.259Z,4.80
2022-09-15T10:10:23.885Z,5.70
2022-09-15T10:12:56.214Z,5.70
2022-09-15T10:15:25.520Z,5.30
2022-09-15T10:17:55.263Z,5.90
2022-09-15T10:20:38.236Z,5.30
2022-09-15T10:23:23.160Z,5.40
2022-09-15T10:26:00.200Z,5.40
2022-09-15T10:28:28.120Z,5.30
2022-09-15T10:31:11.628Z,4.50
2022-09-15T10:33:42.163Z,5.00
2022-09-15T10:36:32.162Z,5.10
2022-09-15T10:39:23.374Z,4.40
2022-09-15T10:42:07.816Z,4.00
2022-09-15T10:44:50.232Z,4.50
2022-09-15T10:47:33.792Z,3.80
2022-09-15T10:50:25.501Z,3.20
2022-09-15T10:53:00.515Z,3.20
2022-09-15T10:55:52.619Z,3.40
2022-09-15T10:58:42.160Z,2.80
2022-09-15T11:01:28.826Z,2.50
2022-09-15T11:04:06.859Z,3.20
2022-09-15T11:06:50.484Z,2.70
2022-09-15T11:09:35.927Z,2.20
2022-09-15T11:12:10.645Z,2.10
2022-09-15T11:15:10.142Z,1.80
2022-09-15T11:17:52.927Z,2.20
2022-09-15T11:20:29.027Z,2.40
2022-09-15T11:23:07.238Z,2.60
2022-09-15T11:25:41.542Z,1.90
2022-09-15T11:28:22.301Z,2.60
2022-09-15T11:31:09.919Z,2.20
2022-09-15T11:33:46.879Z,1.80
2022-09-15T11:36:18.293Z,2.10
2022-09-15T11:38:54.677Z,2.20
2022-09-15T11:41:44.557Z,2.00
2022-09-15T11:44:25.002Z,2.50
2022-09-15T11:47:13.741Z,2.80
2022-09-15T11:50:01.487Z,2.60
2022-09-15T11:52:48.175Z,5.00
2022-09-15T11:55:46.251Z,3.70
2022-09-15T11:58:44.479Z,2.40
2022-09-15T12:01:11.792Z,2.10
2022-09-15T12:04:02.031Z,2.30
2022-09-15T12:06:43.264Z,2.80
2022-09-15T12:09:15.172Z,3.40
2022-09-15T12:11:46.847Z,3.80
2022-09-15T12:14:22.555Z,4.50
2022-09-15T12:16:50.218Z,2.10
2022-09-15T12:19:37.622Z,2.30
2022-09-15T12:22:17.554Z,4.60
2022-09-15T12:24:53.506Z,3.70
2022-09-15T12:27:21.269Z,3.50
2022-09-15T12:29:53.907Z,2.60
2022-09-15T12:32:24.164Z,1.90
2022-09-15T12:35:13.388Z,1.60
2022-09-15T12:37:42.947Z,1.70
2022-09-15T12:40:26.242Z,1.70
2022-09-15T12:42:53.875Z,2.20
2022-09-15T12:45:27.536Z,2.60
2022-09-15T12:48:02.613Z,2.80
2022-09-15T12:50:36.573Z,3.20
2022-09-15T12:53:14.811Z,3.90
2022-09-15T12:55:51.168Z,3.80
2022-09-15T12:58:28.456Z,4.20
2022-09-15T13:01:19.301Z,3.50
2022-09-15T13:03:48.864Z,3.70
2022-09-15T13:06:34.360Z,2.90
2022-09-15T13:09:01.719Z,2.50
2022-09-15T13:11:38.285Z,2.80
2022-09-15T13:14:06.950Z,2.90
2022-09-15T13:16:43.879Z,2.60
2022-09-15T13:19:15.404Z,7.00
2022-09-15T13:21:48.002Z,6.60
2022-09-15T13:24:23.898Z,6.20
2022-09-15T13:26:55.811Z,6.40
2022-09-15T13:29:24.588Z,8.70
2022-09-15T13:32:02.267Z,8.40
2022-09-15T13:35:04.123Z,8.60
2022-09-15T13:38:08.043Z,8.90
2022-09-15T13:40:51.808Z,9.80
2022-09-15T13:43:40.629Z,11.60
2022-09-15T13:46:12.630Z,11.60
2022-09-15T13:49:00.541Z,9.80
2022-09-15T13:51:30.087Z,11.70
2022-09-15T13:54:02.883Z,12.90
2022-09-15T13:56:35.800Z,13.40
2022-09-15T13:59:11.238Z,14.60
2022-09-15T14:01:42.262Z,14.50
2022-09-15T14:04:16.817Z,14.70
2022-09-15T14:06:47.012Z,14.60
2022-09-15T14:09:18.587Z,14.80
2022-09-15T14:11:49.010Z,14.90
2022-09-15T14:14:34.739Z,10.90
2022-09-15T14:17:01.622Z,13.00
2022-09-15T14:19:38.435Z,14.50
2022-09-15T14:22:21.253Z,14.70
2022-09-15T14:24:50.157Z,14.50
2022-09-15T14:27:24.224Z,14.90
2022-09-15T14:29:55.466Z,14.10
2022-09-15T14:32:22.678Z,15.00
2022-09-15T14:34:51.122Z,14.60
2022-09-15T14:37:27.627Z,14.00
2022-09-15T14:39:57.512Z,14.20
2022-09-15T14:42:32.551Z,15.00
2022-09-15T14:48:08.072Z,13.20
2022-09-15T14:50:35.555Z,13.00
2022-09-15T14:53:04.496Z,13.60
2022-09-15T14:55:33.046Z,12.00
2022-09-15T14:58:02.420Z,12.40
2022-09-15T15:00:34.689Z,11.80
2022-09-15T15:03:17.617Z,12.40
2022-09-15T15:05:58.037Z,9.10
2022-09-15T15:08:30.217Z,10.90
2022-09-15T15:10:58.855Z,11.20
2022-09-15T15:13:26.423Z,10.40
2022-09-15T15:15:53.569Z,10.80
2022-09-15T15:18:37.393Z,10.70
2022-09-15T15:21:05.040Z,11.00
2022-09-15T15:23:32.388Z,11.10
2022-09-15T15:26:30.657Z,10.30
2022-09-15T15:28:57.408Z,9.90
2022-09-15T15:31:28.046Z,10.00
2022-09-15T15:33:59.366Z,9.40
2022-09-15T15:36:28.694Z,8.90
2022-09-15T15:39:06.649Z,10.20
2022-09-15T15:41:42.257Z,9.90
2022-09-15T15:44:17.055Z,10.60
2022-09-15T15:46:49.963Z,9.80
2022-09-15T15:49:18.081Z,9.20
2022-09-15T15:51:44.914Z,8.60
2022-09-15T15:54:11.872Z,7.50
2022-09-15T15:56:41.117Z,8.00
2022-09-15T15:59:11.939Z,6.60
2022-09-15T16:01:38.795Z,6.30
2022-09-15T16:04:06.350Z,5.80
2022-09-15T16:06:33.923Z,5.30
2022-09-15T16:09:01.559Z,5.20
2022-09-15T16:11:28.628Z,4.80
2022-09-15T16:13:56.199Z,5.20
2022-09-15T16:16:26.298Z,5.40
2022-09-15T16:18:53.565Z,5.80
2022-09-15T16:21:26.216Z,6.00
2022-09-15T16:23:53.111Z,4.90
2022-09-15T16:26:23.272Z,5.40
2022-09-15T16:28:51.256Z,5.80
2022-09-15T16:31:18.075Z,5.10
2022-09-15T16:33:44.922Z,5.20
2022-09-15T16:36:15.923Z,6.00
2022-09-15T16:38:43.366Z,6.50
2022-09-15T16:41:20.056Z,6.90
2022-09-15T16:43:47.474Z,6.10
2022-09-15T16:46:14.936Z,5.70
2022-09-15T16:48:43.557Z,5.70
2022-09-15T16:51:26.662Z,5.00
2022-09-15T16:53:56.926Z,4.90
2022-09-15T16:56:23.770Z,5.20
2022-09-15T16:58:54.799Z,4.80
2022-09-15T17:01:25.327Z,4.40
2022-09-15T17:03:52.057Z,4.20
2022-09-15T17:06:19.040Z,4.50
2022-09-15T17:08:46.117Z,4.40
2022-09-15T17:11:16.729Z,5.30
2022-09-15T17:13:44.786Z,5.60
2022-09-15T17:16:14.956Z,6.80
2022-09-15T17:18:41.781Z,7.30
2022-09-15T17:21:11.843Z,7.90
2022-09-15T17:23:42.967Z,7.60
2022-09-15T17:26:13.014Z,8.10
2022-09-15T17:28:40.991Z,8.40
2022-09-15T17:31:17.857Z,8.60
2022-09-15T17:33:45.175Z,9.20
2022-09-15T17:36:12.038Z,8.40
2022-09-15T17:38:41.214Z,8.90
2022-09-15T17:41:13.929Z,8.30
2022-09-15T17:43:40.618Z,9.20
2022-09-15T17:46:08.980Z,9.20
2022-09-15T17:48:38.652Z,8.90
2022-09-15T17:51:07.187Z,9.30
2022-09-15T17:53:35.269Z,8.30
2022-09-15T17:56:02.212Z,8.30
2022-09-15T17:58:31.436Z,8.90
2022-09-15T18:00:59.022Z,8.80
2022-09-15T18:03:29.157Z,9.30
2022-09-15T18:05:58.383Z,8.80
2022-09-15T18:08:26.384Z,9.50
2022-09-15T18:10:53.845Z,9.10
2022-09-15T18:13:23.977Z,7.60
2022-09-15T18:15:51.322Z,6.80
2022-09-15T18:18:21.195Z,7.60
2022-09-15T18:20:50.015Z,7.20
2022-09-15T18:23:19.658Z,7.50
2022-09-15T18:25:47.489Z,7.40
2022-09-15T18:28:15.864Z,7.20
2022-09-15T18:30:44.820Z,5.90
2022-09-15T18:33:18.677Z,6.70
2022-09-15T18:35:46.823Z,7.10
2022-09-15T18:38:13.983Z,8.90
2022-09-15T18:40:46.074Z,8.10
2022-09-15T18:43:12.977Z,9.60
2022-09-15T18:45:41.893Z,8.90
2022-09-15T18:48:12.735Z,8.90
2022-09-15T18:50:41.652Z,7.00
2022-09-15T18:53:09.145Z,7.70
2022-09-15T18:55:35.910Z,7.40
2022-09-15T18:58:02.877Z,8.00
2022-09-15T19:00:29.835Z,8.30
2022-09-15T19:03:01.629Z,8.70
2022-09-15T19:05:30.199Z,8.10
2022-09-15T19:07:57.595Z,7.90
2022-09-15T19:10:25.627Z,9.50
2022-09-15T19:12:53.162Z,9.40
2022-09-15T19:15:23.648Z,9.60
2022-09-15T19:17:50.746Z,10.20
2022-09-15T19:20:17.641Z,10.00
2022-09-15T19:22:44.449Z,10.20
2022-09-15T19:25:12.248Z,10.50
2022-09-15T19:27:39.886Z,10.30
2022-09-15T19:30:10.459Z,9.00
2022-09-15T19:32:39.380Z,9.00
2022-09-15T19:35:06.907Z,9.10
2022-09-15T19:37:37.553Z,10.60
2022-09-15T19:40:08.723Z,10.90
2022-09-15T19:42:36.802Z,10.70
2022-09-15T19:45:04.095Z,11.20
2022-09-15T19:47:30.897Z,11.60
2022-09-15T19:49:58.125Z,10.90
2022-09-15T19:52:25.554Z,10.30
2022-09-15T19:54:52.308Z,9.90
2022-09-15T19:57:19.300Z,9.40
2022-09-15T19:59:46.064Z,9.30
2022-09-15T20:02:13.413Z,10.90
2022-09-15T20:07:24.960Z,12.00
2022-09-15T20:10:07.851Z,11.20
2022-09-15T20:12:34.897Z,11.00
2022-09-15T20:15:01.920Z,10.20
2022-09-15T20:17:28.944Z,10.00
2022-09-15T20:19:55.882Z,10.40
2022-09-15T20:22:23.045Z,11.80
2022-09-15T20:24:49.936Z,10.80
2022-09-15T20:27:16.791Z,11.20
2022-09-15T20:29:43.606Z,10.80
2022-09-15T20:32:10.447Z,10.60
2022-09-15T20:34:37.288Z,10.60
2022-09-15T20:37:04.310Z,11.20
2022-09-15T20:39:31.110Z,10.00
2022-09-15T20:41:58.162Z,9.80
2022-09-15T20:44:25.083Z,10.00
2022-09-15T20:46:52.638Z,11.30
2022-09-15T20:49:20.074Z,10.80
2022-09-15T20:51:46.995Z,11.00
2022-09-15T20:54:13.958Z,10.90
2022-09-15T20:56:41.075Z,10.00
2022-09-15T20:59:10.403Z,11.60
2022-09-15T21:01:38.948Z,9.90
2022-09-15T21:04:08.246Z,10.90
2022-09-15T21:06:35.986Z,10.60
2022-09-15T21:09:04.364Z,11.10
2022-09-15T21:11:31.674Z,11.50
2022-09-15T21:13:58.953Z,10.00
2022-09-15T21:16:28.255Z,11.30
2022-09-15T21:18:57.074Z,10.50
2022-09-15T21:21:26.333Z,10.80
2022-09-15T21:23:55.663Z,11.00
2022-09-15T21:26:24.994Z,11.40
2022-09-15T21:28:51.906Z,11.60
2022-09-15T21:31:21.331Z,12.50
2022-09-15T21:33:49.296Z,11.80
2022-09-15T21:36:21.441Z,11.60
2022-09-15T21:38:49.815Z,10.60
2022-09-15T21:41:18.915Z,10.70
2022-09-15T21:43:46.771Z,10.40
2022-09-15T21:46:16.996Z,10.30
2022-09-15T21:48:46.236Z,10.40
2022-09-15T21:51:14.552Z,10.30
2022-09-15T21:53:43.181Z,9.10
2022-09-15T21:56:12.061Z,9.60
2022-09-15T21:58:42.862Z,10.10
2022-09-15T22:01:13.293Z,9.60
2022-09-15T22:03:42.333Z,8.80
2022-09-15T22:06:11.574Z,10.00
2022-09-15T22:08:39.950Z,9.00
2022-09-15T22:11:07.991Z,8.70
2022-09-15T22:13:39.177Z,9.30
2022-09-15T22:16:09.059Z,9.50
2022-09-15T22:18:37.185Z,9.40
2022-09-15T22:21:05.624Z,9.90
2022-09-15T22:23:32.642Z,9.80
2022-09-15T22:26:02.461Z,9.50
2022-09-15T22:28:29.503Z,9.30
2022-09-15T22:30:58.536Z,9.40
2022-09-15T22:33:26.025Z,8.90
2022-09-15T22:35:52.859Z,8.90
2022-09-15T22:38:19.818Z,8.50
2022-09-15T22:40:46.676Z,8.90
2022-09-15T22:43:13.625Z,10.10
2022-09-15T22:45:40.923Z,9.70
2022-09-15T22:48:07.965Z,10.00
2022-09-15T22:50:34.967Z,10.60
2022-09-15T22:53:01.937Z,10.10
2022-09-15T22:55:30.963Z,8.40
2022-09-15T22:57:58.205Z,9.70
2022-09-15T23:00:25.268Z,10.60
2022-09-15T23:02:52.733Z,10.90
2022-09-15T23:05:19.774Z,11.40
2022-09-15T23:07:46.493Z,10.10
2022-09-15T23:10:13.294Z,9.90
2022-09-15T23:12:40.124Z,10.20
2022-09-15T23:15:07.539Z,10.30
2022-09-15T23:17:34.893Z,11.00
2022-09-15T23:20:01.978Z,10.80
2022-09-15T23:22:28.757Z,9.20
2022-09-15T23:24:55.464Z,10.70
2022-09-15T23:27:22.171Z,10.40
2022-09-15T23:29:48.887Z,10.50
2022-09-15T23:32:15.840Z,10.20
2022-09-15T23:34:42.607Z,9.90
2022-09-15T23:37:09.330Z,10.00
2022-09-15T23:39:36.120Z,9.30
2022-09-15T23:42:02.983Z,9.80
2022-09-15T23:44:29.727Z,9.40
2022-09-15T23:46:56.495Z,10.20
2022-09-15T23:49:23.410Z,10.50
2022-09-15T23:51:50.097Z,10.40
2022-09-15T23:54:16.894Z,10.20
2022-09-15T23:56:43.702Z,10.20
2022-09-15T23:59:10.405Z,10.30
